sensor_id;sensor_type;location;lat;lon;timestamp;P1;durP1;ratioP1;P2;durP2;ratioP2
74196;SDS011;62555;52.678;4.900;2022-08-21T00:01:55;2.58;;;1.35;;
74196;SDS011;62555;52.678;4.900;2022-08-21T00:04:21;2.13;;;1.60;;
74196;SDS011;62555;52.678;4.900;2022-08-21T00:06:47;1.88;;;1.52;;
74196;SDS011;62555;52.678;4.900;2022-08-21T00:09:12;1.83;;;1.65;;
74196;SDS011;62555;52.678;4.900;2022-08-21T00:11:38;2.03;;;1.52;;
74196;SDS011;62555;52.678;4.900;2022-08-21T00:14:04;1.52;;;1.33;;
74196;SDS011;62555;52.678;4.900;2022-08-21T00:16:31;2.00;;;1.80;;
74196;SDS011;62555;52.678;4.900;2022-08-21T00:18:56;2.45;;;1.20;;
74196;SDS011;62555;52.678;4.900;2022-08-21T00:21:21;1.75;;;1.55;;
74196;SDS011;62555;52.678;4.900;2022-08-21T00:23:47;2.35;;;1.55;;
74196;SDS011;62555;52.678;4.900;2022-08-21T00:26:12;2.40;;;1.48;;
74196;SDS011;62555;52.678;4.900;2022-08-21T00:28:37;1.60;;;1.50;;
74196;SDS011;62555;52.678;4.900;2022-08-21T00:31:03;2.25;;;1.40;;
74196;SDS011;62555;52.678;4.900;2022-08-21T00:33:31;1.30;;;1.20;;
74196;SDS011;62555;52.678;4.900;2022-08-21T00:35:57;1.92;;;1.48;;
74196;SDS011;62555;52.678;4.900;2022-08-21T00:38:22;1.38;;;1.23;;
74196;SDS011;62555;52.678;4.900;2022-08-21T00:40:52;1.55;;;1.30;;
74196;SDS011;62555;52.678;4.900;2022-08-21T00:43:23;1.58;;;1.17;;
74196;SDS011;62555;52.678;4.900;2022-08-21T00:45:53;2.05;;;1.52;;
74196;SDS011;62555;52.678;4.900;2022-08-21T00:48:19;1.83;;;1.60;;
74196;SDS011;62555;52.678;4.900;2022-08-21T00:50:55;2.83;;;1.85;;
74196;SDS011;62555;52.678;4.900;2022-08-21T00:53:28;1.83;;;1.50;;
74196;SDS011;62555;52.678;4.900;2022-08-21T00:55:57;1.58;;;1.33;;
74196;SDS011;62555;52.678;4.900;2022-08-21T00:58:23;1.40;;;1.30;;
74196;SDS011;62555;52.678;4.900;2022-08-21T01:00:49;2.80;;;1.55;;
74196;SDS011;62555;52.678;4.900;2022-08-21T01:03:16;2.15;;;1.30;;
74196;SDS011;62555;52.678;4.900;2022-08-21T01:05:44;2.05;;;1.73;;
74196;SDS011;62555;52.678;4.900;2022-08-21T01:08:10;3.65;;;2.13;;
74196;SDS011;62555;52.678;4.900;2022-08-21T01:10:36;3.97;;;2.38;;
74196;SDS011;62555;52.678;4.900;2022-08-21T01:13:03;5.00;;;2.45;;
74196;SDS011;62555;52.678;4.900;2022-08-21T01:15:32;6.85;;;2.63;;
74196;SDS011;62555;52.678;4.900;2022-08-21T01:18:00;4.93;;;3.03;;
74196;SDS011;62555;52.678;4.900;2022-08-21T01:20:27;5.20;;;2.38;;
74196;SDS011;62555;52.678;4.900;2022-08-21T01:22:53;5.13;;;2.22;;
74196;SDS011;62555;52.678;4.900;2022-08-21T01:25:18;3.63;;;2.30;;
74196;SDS011;62555;52.678;4.900;2022-08-21T01:27:47;3.28;;;2.30;;
74196;SDS011;62555;52.678;4.900;2022-08-21T01:30:14;5.43;;;2.55;;
74196;SDS011;62555;52.678;4.900;2022-08-21T01:32:42;4.30;;;2.47;;
74196;SDS011;62555;52.678;4.900;2022-08-21T01:35:07;3.50;;;2.20;;
74196;SDS011;62555;52.678;4.900;2022-08-21T01:37:33;4.55;;;2.75;;
74196;SDS011;62555;52.678;4.900;2022-08-21T01:39:58;3.50;;;2.10;;
74196;SDS011;62555;52.678;4.900;2022-08-21T01:42:23;3.53;;;2.00;;
74196;SDS011;62555;52.678;4.900;2022-08-21T01:44:49;4.60;;;2.67;;
74196;SDS011;62555;52.678;4.900;2022-08-21T01:47:15;3.17;;;1.75;;
74196;SDS011;62555;52.678;4.900;2022-08-21T01:49:41;5.25;;;2.50;;
74196;SDS011;62555;52.678;4.900;2022-08-21T01:52:07;3.00;;;1.50;;
74196;SDS011;62555;52.678;4.900;2022-08-21T01:54:32;2.83;;;1.92;;
74196;SDS011;62555;52.678;4.900;2022-08-21T01:56:58;3.38;;;1.98;;
74196;SDS011;62555;52.678;4.900;2022-08-21T01:59:24;5.63;;;2.20;;
74196;SDS011;62555;52.678;4.900;2022-08-21T02:01:50;3.85;;;2.60;;
74196;SDS011;62555;52.678;4.900;2022-08-21T02:04:17;5.07;;;1.90;;
74196;SDS011;62555;52.678;4.900;2022-08-21T02:06:42;3.58;;;2.03;;
74196;SDS011;62555;52.678;4.900;2022-08-21T02:09:09;4.43;;;2.17;;
74196;SDS011;62555;52.678;4.900;2022-08-21T02:11:35;3.58;;;2.10;;
74196;SDS011;62555;52.678;4.900;2022-08-21T02:14:05;2.70;;;1.95;;
74196;SDS011;62555;52.678;4.900;2022-08-21T02:16:31;2.75;;;1.73;;
74196;SDS011;62555;52.678;4.900;2022-08-21T02:18:56;3.45;;;1.92;;
74196;SDS011;62555;52.678;4.900;2022-08-21T02:21:22;3.40;;;1.75;;
74196;SDS011;62555;52.678;4.900;2022-08-21T02:23:47;3.90;;;2.33;;
74196;SDS011;62555;52.678;4.900;2022-08-21T02:26:12;3.65;;;1.88;;
74196;SDS011;62555;52.678;4.900;2022-08-21T02:28:38;4.95;;;2.60;;
74196;SDS011;62555;52.678;4.900;2022-08-21T02:31:04;2.78;;;1.80;;
74196;SDS011;62555;52.678;4.900;2022-08-21T02:33:31;3.28;;;2.13;;
74196;SDS011;62555;52.678;4.900;2022-08-21T02:35:57;2.80;;;1.63;;
74196;SDS011;62555;52.678;4.900;2022-08-21T02:38:23;3.80;;;2.03;;
74196;SDS011;62555;52.678;4.900;2022-08-21T02:40:51;2.15;;;1.73;;
74196;SDS011;62555;52.678;4.900;2022-08-21T02:43:17;3.13;;;2.25;;
74196;SDS011;62555;52.678;4.900;2022-08-21T02:45:45;4.20;;;1.90;;
74196;SDS011;62555;52.678;4.900;2022-08-21T02:48:12;2.70;;;1.52;;
74196;SDS011;62555;52.678;4.900;2022-08-21T02:50:41;2.92;;;1.70;;
74196;SDS011;62555;52.678;4.900;2022-08-21T02:53:09;2.90;;;1.92;;
74196;SDS011;62555;52.678;4.900;2022-08-21T02:55:40;2.60;;;1.90;;
74196;SDS011;62555;52.678;4.900;2022-08-21T02:58:06;1.90;;;1.50;;
74196;SDS011;62555;52.678;4.900;2022-08-21T03:00:32;3.45;;;1.50;;
74196;SDS011;62555;52.678;4.900;2022-08-21T03:02:58;2.55;;;1.73;;
74196;SDS011;62555;52.678;4.900;2022-08-21T03:05:24;2.55;;;1.55;;
74196;SDS011;62555;52.678;4.900;2022-08-21T03:07:50;2.78;;;1.40;;
74196;SDS011;62555;52.678;4.900;2022-08-21T03:10:17;3.63;;;1.40;;
74196;SDS011;62555;52.678;4.900;2022-08-21T03:12:47;2.55;;;1.45;;
74196;SDS011;62555;52.678;4.900;2022-08-21T03:15:14;2.70;;;1.40;;
74196;SDS011;62555;52.678;4.900;2022-08-21T03:17:42;4.45;;;1.80;;
74196;SDS011;62555;52.678;4.900;2022-08-21T03:20:08;1.83;;;1.30;;
74196;SDS011;62555;52.678;4.900;2022-08-21T03:22:34;3.25;;;1.80;;
74196;SDS011;62555;52.678;4.900;2022-08-21T03:24:59;2.45;;;1.70;;
74196;SDS011;62555;52.678;4.900;2022-08-21T03:27:26;2.53;;;1.50;;
74196;SDS011;62555;52.678;4.900;2022-08-21T03:29:52;3.35;;;1.60;;
74196;SDS011;62555;52.678;4.900;2022-08-21T03:32:18;2.10;;;1.58;;
74196;SDS011;62555;52.678;4.900;2022-08-21T03:34:44;2.15;;;1.50;;
74196;SDS011;62555;52.678;4.900;2022-08-21T03:37:10;3.95;;;1.92;;
74196;SDS011;62555;52.678;4.900;2022-08-21T03:39:35;2.47;;;1.35;;
74196;SDS011;62555;52.678;4.900;2022-08-21T03:42:01;3.90;;;1.48;;
74196;SDS011;62555;52.678;4.900;2022-08-21T03:44:26;2.60;;;1.63;;
74196;SDS011;62555;52.678;4.900;2022-08-21T03:46:55;2.30;;;1.63;;
74196;SDS011;62555;52.678;4.900;2022-08-21T03:49:21;2.00;;;1.60;;
74196;SDS011;62555;52.678;4.900;2022-08-21T03:51:46;2.35;;;1.67;;
74196;SDS011;62555;52.678;4.900;2022-08-21T03:54:12;3.22;;;1.65;;
74196;SDS011;62555;52.678;4.900;2022-08-21T03:56:39;2.38;;;1.60;;
74196;SDS011;62555;52.678;4.900;2022-08-21T03:59:05;2.33;;;1.35;;
74196;SDS011;62555;52.678;4.900;2022-08-21T04:01:31;2.58;;;1.50;;
74196;SDS011;62555;52.678;4.900;2022-08-21T04:03:59;2.17;;;1.63;;
74196;SDS011;62555;52.678;4.900;2022-08-21T04:06:25;3.20;;;1.70;;
74196;SDS011;62555;52.678;4.900;2022-08-21T04:08:51;1.92;;;1.40;;
74196;SDS011;62555;52.678;4.900;2022-08-21T04:11:17;3.03;;;1.90;;
74196;SDS011;62555;52.678;4.900;2022-08-21T04:13:42;1.83;;;1.45;;
74196;SDS011;62555;52.678;4.900;2022-08-21T04:16:10;1.90;;;1.45;;
74196;SDS011;62555;52.678;4.900;2022-08-21T04:18:36;1.77;;;1.45;;
74196;SDS011;62555;52.678;4.900;2022-08-21T04:21:01;1.95;;;1.63;;
74196;SDS011;62555;52.678;4.900;2022-08-21T04:23:27;2.40;;;1.38;;
74196;SDS011;62555;52.678;4.900;2022-08-21T04:25:53;2.47;;;1.65;;
74196;SDS011;62555;52.678;4.900;2022-08-21T04:28:20;1.67;;;1.50;;
74196;SDS011;62555;52.678;4.900;2022-08-21T04:30:49;2.85;;;1.50;;
74196;SDS011;62555;52.678;4.900;2022-08-21T04:33:16;3.03;;;1.35;;
74196;SDS011;62555;52.678;4.900;2022-08-21T04:35:41;1.70;;;1.27;;
74196;SDS011;62555;52.678;4.900;2022-08-21T04:38:10;1.98;;;1.17;;
74196;SDS011;62555;52.678;4.900;2022-08-21T04:40:35;2.28;;;1.70;;
74196;SDS011;62555;52.678;4.900;2022-08-21T04:43:03;2.67;;;1.67;;
74196;SDS011;62555;52.678;4.900;2022-08-21T04:45:35;2.55;;;1.50;;
74196;SDS011;62555;52.678;4.900;2022-08-21T04:48:02;2.03;;;1.50;;
74196;SDS011;62555;52.678;4.900;2022-08-21T04:50:51;1.50;;;1.30;;
74196;SDS011;62555;52.678;4.900;2022-08-21T04:53:20;2.30;;;1.80;;
74196;SDS011;62555;52.678;4.900;2022-08-21T04:55:49;2.30;;;1.60;;
74196;SDS011;62555;52.678;4.900;2022-08-21T04:58:18;1.77;;;1.45;;
74196;SDS011;62555;52.678;4.900;2022-08-21T05:00:44;1.80;;;1.38;;
74196;SDS011;62555;52.678;4.900;2022-08-21T05:03:11;2.33;;;1.45;;
74196;SDS011;62555;52.678;4.900;2022-08-21T05:05:37;2.50;;;1.48;;
74196;SDS011;62555;52.678;4.900;2022-08-21T05:08:04;2.47;;;1.70;;
74196;SDS011;62555;52.678;4.900;2022-08-21T05:10:31;2.83;;;1.52;;
74196;SDS011;62555;52.678;4.900;2022-08-21T05:12:57;1.55;;;1.17;;
74196;SDS011;62555;52.678;4.900;2022-08-21T05:15:22;1.90;;;1.30;;
74196;SDS011;62555;52.678;4.900;2022-08-21T05:17:48;1.30;;;1.20;;
74196;SDS011;62555;52.678;4.900;2022-08-21T05:20:13;2.45;;;1.40;;
74196;SDS011;62555;52.678;4.900;2022-08-21T05:22:39;2.65;;;1.50;;
74196;SDS011;62555;52.678;4.900;2022-08-21T05:25:06;2.42;;;1.40;;
74196;SDS011;62555;52.678;4.900;2022-08-21T05:29:57;1.87;;;1.50;;
74196;SDS011;62555;52.678;4.900;2022-08-21T05:32:23;2.17;;;1.63;;
74196;SDS011;62555;52.678;4.900;2022-08-21T05:34:49;2.05;;;1.40;;
74196;SDS011;62555;52.678;4.900;2022-08-21T05:37:15;2.13;;;1.30;;
74196;SDS011;62555;52.678;4.900;2022-08-21T05:39:40;2.95;;;1.75;;
74196;SDS011;62555;52.678;4.900;2022-08-21T05:42:05;2.72;;;1.80;;
74196;SDS011;62555;52.678;4.900;2022-08-21T05:44:31;1.48;;;1.25;;
74196;SDS011;62555;52.678;4.900;2022-08-21T05:47:02;2.08;;;1.42;;
74196;SDS011;62555;52.678;4.900;2022-08-21T05:49:36;2.55;;;1.30;;
74196;SDS011;62555;52.678;4.900;2022-08-21T05:52:02;2.65;;;1.60;;
74196;SDS011;62555;52.678;4.900;2022-08-21T05:54:28;2.80;;;1.52;;
74196;SDS011;62555;52.678;4.900;2022-08-21T05:56:54;1.88;;;1.20;;
74196;SDS011;62555;52.678;4.900;2022-08-21T05:59:19;2.70;;;1.50;;
74196;SDS011;62555;52.678;4.900;2022-08-21T06:01:44;2.47;;;1.30;;
74196;SDS011;62555;52.678;4.900;2022-08-21T06:04:12;3.42;;;1.40;;
74196;SDS011;62555;52.678;4.900;2022-08-21T06:06:38;3.08;;;1.70;;
74196;SDS011;62555;52.678;4.900;2022-08-21T06:09:04;2.15;;;1.50;;
74196;SDS011;62555;52.678;4.900;2022-08-21T06:11:30;1.95;;;1.50;;
74196;SDS011;62555;52.678;4.900;2022-08-21T06:13:56;2.22;;;1.45;;
74196;SDS011;62555;52.678;4.900;2022-08-21T06:16:21;1.92;;;1.23;;
74196;SDS011;62555;52.678;4.900;2022-08-21T06:18:47;1.88;;;1.20;;
74196;SDS011;62555;52.678;4.900;2022-08-21T06:21:13;3.13;;;1.58;;
74196;SDS011;62555;52.678;4.900;2022-08-21T06:23:38;2.92;;;1.30;;
74196;SDS011;62555;52.678;4.900;2022-08-21T06:26:04;2.63;;;1.38;;
74196;SDS011;62555;52.678;4.900;2022-08-21T06:28:31;1.65;;;1.38;;
74196;SDS011;62555;52.678;4.900;2022-08-21T06:30:57;2.05;;;1.30;;
74196;SDS011;62555;52.678;4.900;2022-08-21T06:33:22;3.03;;;1.63;;
74196;SDS011;62555;52.678;4.900;2022-08-21T06:35:48;2.05;;;1.30;;
74196;SDS011;62555;52.678;4.900;2022-08-21T06:38:14;1.73;;;1.30;;
74196;SDS011;62555;52.678;4.900;2022-08-21T06:40:39;2.17;;;1.40;;
74196;SDS011;62555;52.678;4.900;2022-08-21T06:43:06;1.83;;;1.23;;
74196;SDS011;62555;52.678;4.900;2022-08-21T06:45:36;1.65;;;1.10;;
74196;SDS011;62555;52.678;4.900;2022-08-21T06:48:02;2.85;;;1.20;;
74196;SDS011;62555;52.678;4.900;2022-08-21T06:50:28;2.78;;;1.20;;
74196;SDS011;62555;52.678;4.900;2022-08-21T06:53:00;2.65;;;1.35;;
74196;SDS011;62555;52.678;4.900;2022-08-21T06:55:30;2.05;;;1.35;;
74196;SDS011;62555;52.678;4.900;2022-08-21T06:57:56;2.92;;;1.60;;
74196;SDS011;62555;52.678;4.900;2022-08-21T07:00:21;2.17;;;1.50;;
74196;SDS011;62555;52.678;4.900;2022-08-21T07:02:46;2.13;;;1.48;;
74196;SDS011;62555;52.678;4.900;2022-08-21T07:05:15;3.45;;;1.50;;
74196;SDS011;62555;52.678;4.900;2022-08-21T07:07:40;3.70;;;1.60;;
74196;SDS011;62555;52.678;4.900;2022-08-21T07:10:06;3.97;;;1.92;;
74196;SDS011;62555;52.678;4.900;2022-08-21T07:12:31;4.80;;;2.03;;
74196;SDS011;62555;52.678;4.900;2022-08-21T07:14:57;3.28;;;1.98;;
74196;SDS011;62555;52.678;4.900;2022-08-21T07:17:23;71.20;;;43.38;;
74196;SDS011;62555;52.678;4.900;2022-08-21T07:19:48;23.17;;;11.63;;
74196;SDS011;62555;52.678;4.900;2022-08-21T07:22:16;6.53;;;2.03;;
74196;SDS011;62555;52.678;4.900;2022-08-21T07:24:43;5.32;;;1.90;;
74196;SDS011;62555;52.678;4.900;2022-08-21T07:27:09;2.92;;;1.52;;
74196;SDS011;62555;52.678;4.900;2022-08-21T07:29:34;2.88;;;1.70;;
74196;SDS011;62555;52.678;4.900;2022-08-21T07:31:59;2.95;;;1.50;;
74196;SDS011;62555;52.678;4.900;2022-08-21T07:34:25;1.63;;;1.38;;
74196;SDS011;62555;52.678;4.900;2022-08-21T07:36:50;21.50;;;12.35;;
74196;SDS011;62555;52.678;4.900;2022-08-21T07:39:15;163.00;;;108.22;;
74196;SDS011;62555;52.678;4.900;2022-08-21T07:41:41;71.50;;;41.00;;
74196;SDS011;62555;52.678;4.900;2022-08-21T07:44:06;41.75;;;23.02;;
74196;SDS011;62555;52.678;4.900;2022-08-21T07:46:31;462.17;;;319.05;;
74196;SDS011;62555;52.678;4.900;2022-08-21T07:48:57;373.00;;;232.93;;
74196;SDS011;62555;52.678;4.900;2022-08-21T07:51:23;528.92;;;399.58;;
74196;SDS011;62555;52.678;4.900;2022-08-21T07:53:52;241.38;;;145.93;;
74196;SDS011;62555;52.678;4.900;2022-08-21T07:58:44;35.92;;;17.02;;
74196;SDS011;62555;52.678;4.900;2022-08-21T08:01:09;19.42;;;7.50;;
74196;SDS011;62555;52.678;4.900;2022-08-21T08:03:35;10.60;;;3.80;;
74196;SDS011;62555;52.678;4.900;2022-08-21T08:06:01;77.28;;;48.25;;
74196;SDS011;62555;52.678;4.900;2022-08-21T08:08:29;378.35;;;311.33;;
74196;SDS011;62555;52.678;4.900;2022-08-21T08:10:55;409.48;;;341.48;;
74196;SDS011;62555;52.678;4.900;2022-08-21T08:13:21;211.77;;;149.48;;
74196;SDS011;62555;52.678;4.900;2022-08-21T08:15:46;77.32;;;40.65;;
74196;SDS011;62555;52.678;4.900;2022-08-21T08:18:12;30.73;;;16.63;;
74196;SDS011;62555;52.678;4.900;2022-08-21T08:20:38;10.80;;;5.60;;
74196;SDS011;62555;52.678;4.900;2022-08-21T08:23:04;2.78;;;2.33;;
74196;SDS011;62555;52.678;4.900;2022-08-21T08:25:29;11.55;;;7.72;;
74196;SDS011;62555;52.678;4.900;2022-08-21T08:27:56;402.33;;;318.92;;
74196;SDS011;62555;52.678;4.900;2022-08-21T08:30:22;535.60;;;461.25;;
74196;SDS011;62555;52.678;4.900;2022-08-21T08:32:48;325.85;;;237.63;;
74196;SDS011;62555;52.678;4.900;2022-08-21T08:35:14;344.40;;;242.73;;
74196;SDS011;62555;52.678;4.900;2022-08-21T08:37:40;110.05;;;60.45;;
74196;SDS011;62555;52.678;4.900;2022-08-21T08:40:09;39.63;;;18.80;;
74196;SDS011;62555;52.678;4.900;2022-08-21T08:42:36;91.80;;;56.50;;
74196;SDS011;62555;52.678;4.900;2022-08-21T08:45:07;200.05;;;142.13;;
74196;SDS011;62555;52.678;4.900;2022-08-21T08:47:35;27.02;;;13.68;;
74196;SDS011;62555;52.678;4.900;2022-08-21T08:50:05;4.13;;;2.50;;
74196;SDS011;62555;52.678;4.900;2022-08-21T08:52:33;3.58;;;1.90;;
74196;SDS011;62555;52.678;4.900;2022-08-21T08:55:13;3.08;;;1.90;;
74196;SDS011;62555;52.678;4.900;2022-08-21T08:57:42;1.92;;;1.45;;
74196;SDS011;62555;52.678;4.900;2022-08-21T09:00:11;3.65;;;1.50;;
74196;SDS011;62555;52.678;4.900;2022-08-21T09:02:39;2.13;;;1.50;;
74196;SDS011;62555;52.678;4.900;2022-08-21T09:05:06;2.00;;;1.30;;
74196;SDS011;62555;52.678;4.900;2022-08-21T09:12:41;2.40;;;1.55;;
74196;SDS011;62555;52.678;4.900;2022-08-21T09:23:22;2.15;;;1.35;;
74196;SDS011;62555;52.678;4.900;2022-08-21T09:26:02;3.03;;;1.35;;
74196;SDS011;62555;52.678;4.900;2022-08-21T09:28:35;2.97;;;1.60;;
74196;SDS011;62555;52.678;4.900;2022-08-21T09:31:08;1.73;;;1.60;;
74196;SDS011;62555;52.678;4.900;2022-08-21T09:33:37;2.97;;;1.30;;
74196;SDS011;62555;52.678;4.900;2022-08-21T09:36:02;3.03;;;1.30;;
74196;SDS011;62555;52.678;4.900;2022-08-21T09:38:30;2.10;;;1.23;;
74196;SDS011;62555;52.678;4.900;2022-08-21T09:40:59;1.92;;;1.40;;
74196;SDS011;62555;52.678;4.900;2022-08-21T09:43:30;2.85;;;1.50;;
74196;SDS011;62555;52.678;4.900;2022-08-21T09:46:07;2.78;;;1.30;;
74196;SDS011;62555;52.678;4.900;2022-08-21T09:48:40;2.65;;;1.40;;
74196;SDS011;62555;52.678;4.900;2022-08-21T09:51:12;1.65;;;1.25;;
74196;SDS011;62555;52.678;4.900;2022-08-21T09:53:41;3.38;;;1.70;;
74196;SDS011;62555;52.678;4.900;2022-08-21T09:56:19;1.67;;;1.42;;
74196;SDS011;62555;52.678;4.900;2022-08-21T09:59:12;2.55;;;1.40;;
74196;SDS011;62555;52.678;4.900;2022-08-21T10:01:44;2.45;;;1.20;;
74196;SDS011;62555;52.678;4.900;2022-08-21T10:04:11;1.92;;;1.35;;
74196;SDS011;62555;52.678;4.900;2022-08-21T10:06:36;2.58;;;1.20;;
74196;SDS011;62555;52.678;4.900;2022-08-21T10:09:06;2.97;;;1.75;;
74196;SDS011;62555;52.678;4.900;2022-08-21T10:11:36;80.18;;;55.47;;
74196;SDS011;62555;52.678;4.900;2022-08-21T10:16:37;290.27;;;233.53;;
74196;SDS011;62555;52.678;4.900;2022-08-21T10:19:30;219.73;;;146.75;;
74196;SDS011;62555;52.678;4.900;2022-08-21T10:41:30;191.90;;;124.38;;
74196;SDS011;62555;52.678;4.900;2022-08-21T10:46:52;104.20;;;58.13;;
74196;SDS011;62555;52.678;4.900;2022-08-21T10:51:50;631.20;;;558.47;;
74196;SDS011;62555;52.678;4.900;2022-08-21T10:56:57;1330.45;;;882.88;;
74196;SDS011;62555;52.678;4.900;2022-08-21T10:59:31;1078.53;;;798.42;;
74196;SDS011;62555;52.678;4.900;2022-08-21T11:02:02;1160.28;;;823.08;;
74196;SDS011;62555;52.678;4.900;2022-08-21T11:04:30;1053.60;;;764.28;;
74196;SDS011;62555;52.678;4.900;2022-08-21T11:07:02;1112.68;;;774.65;;
74196;SDS011;62555;52.678;4.900;2022-08-21T11:09:31;977.97;;;701.35;;
74196;SDS011;62555;52.678;4.900;2022-08-21T11:11:58;1031.25;;;740.92;;
74196;SDS011;62555;52.678;4.900;2022-08-21T11:14:46;1118.13;;;784.35;;
74196;SDS011;62555;52.678;4.900;2022-08-21T11:17:14;1383.47;;;871.45;;
74196;SDS011;62555;52.678;4.900;2022-08-21T11:19:45;1383.20;;;866.25;;
74196;SDS011;62555;52.678;4.900;2022-08-21T11:22:28;1562.38;;;957.33;;
74196;SDS011;62555;52.678;4.900;2022-08-21T11:27:38;1218.32;;;803.47;;
74196;SDS011;62555;52.678;4.900;2022-08-21T11:30:04;1060.72;;;736.35;;
74196;SDS011;62555;52.678;4.900;2022-08-21T11:32:36;1088.00;;;769.35;;
74196;SDS011;62555;52.678;4.900;2022-08-21T11:35:25;866.00;;;629.38;;
74196;SDS011;62555;52.678;4.900;2022-08-21T11:40:54;753.00;;;561.92;;
74196;SDS011;62555;52.678;4.900;2022-08-21T11:43:49;489.50;;;337.90;;
74196;SDS011;62555;52.678;4.900;2022-08-21T11:46:34;698.70;;;537.22;;
74196;SDS011;62555;52.678;4.900;2022-08-21T11:49:49;640.78;;;503.38;;
74196;SDS011;62555;52.678;4.900;2022-08-21T11:55:06;840.10;;;655.33;;
74196;SDS011;62555;52.678;4.900;2022-08-21T11:57:45;598.63;;;463.02;;
74196;SDS011;62555;52.678;4.900;2022-08-21T12:00:33;358.98;;;236.13;;
74196;SDS011;62555;52.678;4.900;2022-08-21T12:03:34;133.48;;;69.80;;
74196;SDS011;62555;52.678;4.900;2022-08-21T12:06:04;289.23;;;184.73;;
74196;SDS011;62555;52.678;4.900;2022-08-21T12:08:33;344.20;;;197.45;;
74196;SDS011;62555;52.678;4.900;2022-08-21T12:11:05;202.27;;;114.97;;
74196;SDS011;62555;52.678;4.900;2022-08-21T12:13:34;102.60;;;48.88;;
74196;SDS011;62555;52.678;4.900;2022-08-21T12:16:07;548.47;;;364.45;;
74196;SDS011;62555;52.678;4.900;2022-08-21T12:18:34;556.47;;;384.42;;
74196;SDS011;62555;52.678;4.900;2022-08-21T12:24:00;309.55;;;176.52;;
74196;SDS011;62555;52.678;4.900;2022-08-21T12:26:35;517.72;;;342.70;;
74196;SDS011;62555;52.678;4.900;2022-08-21T12:31:55;450.55;;;313.52;;
74196;SDS011;62555;52.678;4.900;2022-08-21T12:34:27;232.25;;;130.50;;
74196;SDS011;62555;52.678;4.900;2022-08-21T12:36:58;136.50;;;76.25;;
74196;SDS011;62555;52.678;4.900;2022-08-21T12:39:26;22.25;;;11.57;;
74196;SDS011;62555;52.678;4.900;2022-08-21T12:41:57;9.43;;;4.15;;
74196;SDS011;62555;52.678;4.900;2022-08-21T12:44:34;4.97;;;2.63;;
74196;SDS011;62555;52.678;4.900;2022-08-21T12:47:05;3.03;;;2.10;;
74196;SDS011;62555;52.678;4.900;2022-08-21T12:49:43;2.15;;;1.50;;
74196;SDS011;62555;52.678;4.900;2022-08-21T12:52:17;3.05;;;1.67;;
74196;SDS011;62555;52.678;4.900;2022-08-21T12:54:45;1.92;;;1.60;;
74196;SDS011;62555;52.678;4.900;2022-08-21T12:57:18;2.33;;;1.48;;
74196;SDS011;62555;52.678;4.900;2022-08-21T12:59:52;2.88;;;1.50;;
74196;SDS011;62555;52.678;4.900;2022-08-21T13:02:22;2.45;;;1.50;;
74196;SDS011;62555;52.678;4.900;2022-08-21T13:04:50;2.92;;;1.60;;
74196;SDS011;62555;52.678;4.900;2022-08-21T13:07:23;2.13;;;1.60;;
74196;SDS011;62555;52.678;4.900;2022-08-21T13:10:02;2.60;;;1.55;;
74196;SDS011;62555;52.678;4.900;2022-08-21T13:12:29;2.22;;;1.73;;
74196;SDS011;62555;52.678;4.900;2022-08-21T13:14:56;2.90;;;1.65;;
74196;SDS011;62555;52.678;4.900;2022-08-21T13:17:23;3.08;;;1.25;;
74196;SDS011;62555;52.678;4.900;2022-08-21T13:19:57;2.85;;;1.42;;
74196;SDS011;62555;52.678;4.900;2022-08-21T13:24:48;2.10;;;1.60;;
74196;SDS011;62555;52.678;4.900;2022-08-21T13:27:22;2.35;;;1.58;;
74196;SDS011;62555;52.678;4.900;2022-08-21T13:32:48;2.72;;;1.40;;
74196;SDS011;62555;52.678;4.900;2022-08-21T13:35:18;2.47;;;1.48;;
74196;SDS011;62555;52.678;4.900;2022-08-21T13:38:12;2.40;;;1.13;;
74196;SDS011;62555;52.678;4.900;2022-08-21T13:40:57;9.20;;;7.57;;
74196;SDS011;62555;52.678;4.900;2022-08-21T13:43:28;109.72;;;68.85;;
74196;SDS011;62555;52.678;4.900;2022-08-21T13:45:58;599.28;;;503.05;;
74196;SDS011;62555;52.678;4.900;2022-08-21T13:48:25;585.92;;;484.67;;
74196;SDS011;62555;52.678;4.900;2022-08-21T13:50:53;901.85;;;710.05;;
74196;SDS011;62555;52.678;4.900;2022-08-21T13:53:23;1198.80;;;823.10;;
74196;SDS011;62555;52.678;4.900;2022-08-21T13:55:52;1171.07;;;819.53;;
74196;SDS011;62555;52.678;4.900;2022-08-21T13:58:27;886.92;;;672.85;;
74196;SDS011;62555;52.678;4.900;2022-08-21T14:01:15;658.72;;;507.38;;
74196;SDS011;62555;52.678;4.900;2022-08-21T14:03:45;427.02;;;294.38;;
74196;SDS011;62555;52.678;4.900;2022-08-21T14:06:18;305.25;;;193.48;;
74196;SDS011;62555;52.678;4.900;2022-08-21T14:09:31;91.13;;;49.17;;
74196;SDS011;62555;52.678;4.900;2022-08-21T14:11:37;445.05;;;317.92;;
74196;SDS011;62555;52.678;4.900;2022-08-21T14:14:05;530.42;;;415.75;;
74196;SDS011;62555;52.678;4.900;2022-08-21T14:16:56;670.47;;;535.92;;
74196;SDS011;62555;52.678;4.900;2022-08-21T14:19:46;730.67;;;572.42;;
74196;SDS011;62555;52.678;4.900;2022-08-21T14:22:29;513.05;;;365.75;;
74196;SDS011;62555;52.678;4.900;2022-08-21T14:25:08;805.42;;;598.60;;
74196;SDS011;62555;52.678;4.900;2022-08-21T14:27:35;757.08;;;574.85;;
74196;SDS011;62555;52.678;4.900;2022-08-21T14:30:36;1012.05;;;754.22;;
74196;SDS011;62555;52.678;4.900;2022-08-21T14:32:55;910.63;;;692.80;;
74196;SDS011;62555;52.678;4.900;2022-08-21T14:35:20;711.80;;;554.97;;
74196;SDS011;62555;52.678;4.900;2022-08-21T14:37:46;520.42;;;368.65;;
74196;SDS011;62555;52.678;4.900;2022-08-21T14:40:12;309.25;;;194.52;;
74196;SDS011;62555;52.678;4.900;2022-08-21T14:42:39;116.00;;;65.40;;
74196;SDS011;62555;52.678;4.900;2022-08-21T14:47:33;6.78;;;3.10;;
74196;SDS011;62555;52.678;4.900;2022-08-21T14:49:58;2.58;;;2.00;;
74196;SDS011;62555;52.678;4.900;2022-08-21T14:52:24;4.75;;;1.80;;
74196;SDS011;62555;52.678;4.900;2022-08-21T14:54:49;3.08;;;1.50;;
74196;SDS011;62555;52.678;4.900;2022-08-21T14:57:14;2.30;;;1.50;;
74196;SDS011;62555;52.678;4.900;2022-08-21T14:59:40;3.08;;;1.65;;
74196;SDS011;62555;52.678;4.900;2022-08-21T15:02:06;2.72;;;1.50;;
74196;SDS011;62555;52.678;4.900;2022-08-21T15:04:33;2.97;;;1.65;;
74196;SDS011;62555;52.678;4.900;2022-08-21T15:06:59;3.90;;;1.60;;
74196;SDS011;62555;52.678;4.900;2022-08-21T15:09:24;3.55;;;1.38;;
74196;SDS011;62555;52.678;4.900;2022-08-21T15:11:51;3.85;;;1.40;;
74196;SDS011;62555;52.678;4.900;2022-08-21T15:14:19;4.88;;;2.20;;
74196;SDS011;62555;52.678;4.900;2022-08-21T15:16:46;1.83;;;1.45;;
74196;SDS011;62555;52.678;4.900;2022-08-21T15:19:12;3.40;;;1.42;;
74196;SDS011;62555;52.678;4.900;2022-08-21T15:21:37;2.80;;;1.30;;
74196;SDS011;62555;52.678;4.900;2022-08-21T15:24:03;3.60;;;1.45;;
74196;SDS011;62555;52.678;4.900;2022-08-21T15:26:28;3.90;;;1.50;;
74196;SDS011;62555;52.678;4.900;2022-08-21T15:28:54;3.22;;;1.50;;
74196;SDS011;62555;52.678;4.900;2022-08-21T15:31:19;3.45;;;1.23;;
74196;SDS011;62555;52.678;4.900;2022-08-21T15:33:44;3.58;;;1.52;;
74196;SDS011;62555;52.678;4.900;2022-08-21T15:36:10;2.78;;;1.33;;
74196;SDS011;62555;52.678;4.900;2022-08-21T15:38:35;2.72;;;1.75;;
74196;SDS011;62555;52.678;4.900;2022-08-21T15:41:01;2.65;;;1.52;;
74196;SDS011;62555;52.678;4.900;2022-08-21T15:43:29;3.45;;;1.52;;
74196;SDS011;62555;52.678;4.900;2022-08-21T15:45:56;2.65;;;1.42;;
74196;SDS011;62555;52.678;4.900;2022-08-21T15:48:23;3.22;;;1.75;;
74196;SDS011;62555;52.678;4.900;2022-08-21T15:50:49;3.88;;;1.52;;
74196;SDS011;62555;52.678;4.900;2022-08-21T15:53:14;3.42;;;1.40;;
74196;SDS011;62555;52.678;4.900;2022-08-21T15:55:39;11.07;;;6.22;;